Time;durP1;ratioP1;P1;durP2;ratioP2;P2;SDS_P1;SDS_P2;PMS_P1;PMS_P2;Temp;Humidity;BMP_temperature;BMP_pressure;BME280_temperature;BME280_humidity;BME280_pressure;Samples;Min_cycle;Max_cycle;Signal;HPM_P1;HPM_P2
2022/08/23 00:00:11;;;;;;;5.18;4.00;;;14.40;91.30;;;;;;5116005;28;20200;-87
2022/08/23 00:02:37;;;;;;;3.75;3.45;;;14.30;91.30;;;;;;5106488;28;20209;-87
2022/08/23 00:05:06;;;;;;;13.18;11.13;;;14.10;91.90;;;;;;5113004;28;20283;-86
2022/08/23 00:07:33;;;;;;;16.90;13.75;;;14.10;93.00;;;;;;5113367;28;20210;-86
2022/08/23 00:10:00;;;;;;;14.77;12.27;;;14.50;92.60;;;;;;5110709;28;20203;-87
2022/08/23 00:12:27;;;;;;;7.10;5.65;;;14.80;91.40;;;;;;5114639;28;20302;-86
2022/08/23 00:14:57;;;;;;;5.00;3.15;;;15.00;90.60;;;;;;5104446;28;20289;-87
2022/08/23 00:17:40;;;;;;;4.97;3.50;;;14.60;90.40;;;;;;5114730;28;20202;-87
2022/08/23 00:20:12;;;;;;;5.13;3.45;;;14.40;91.30;;;;;;5104691;28;20550;-86
2022/08/23 00:22:40;;;;;;;3.85;3.45;;;14.10;91.40;;;;;;5114853;28;20200;-87
2022/08/23 00:25:09;;;;;;;5.18;4.65;;;13.90;92.30;;;;;;5103089;28;20207;-87
2022/08/23 00:27:36;;;;;;;5.30;4.60;;;14.00;92.90;;;;;;5113889;28;20214;-87
2022/08/23 00:30:06;;;;;;;6.63;5.93;;;14.20;92.50;;;;;;5103422;28;20200;-87
2022/08/23 00:32:36;;;;;;;8.70;5.85;;;14.30;92.60;;;;;;5114194;28;20206;-87
2022/08/23 00:35:04;;;;;;;8.93;5.57;;;14.80;91.40;;;;;;5109930;28;20561;-87
2022/08/23 00:37:33;;;;;;;5.32;4.70;;;15.00;90.80;;;;;;5096579;28;20605;-87
2022/08/23 00:40:00;;;;;;;5.70;4.72;;;15.20;89.60;;;;;;5114636;28;20208;-87
2022/08/23 00:48:07;;;;;;;7.07;4.30;;;15.40;90.40;;;;;;5114438;28;20215;-87
2022/08/23 00:50:57;;;;;;;5.35;3.20;;;15.40;90.50;;;;;;5115150;28;20275;-87
2022/08/23 00:53:30;;;;;;;43.17;27.45;;;15.10;86.70;;;;;;5112520;28;20223;-87
2022/08/23 00:56:02;;;;;;;10.68;9.13;;;14.90;90.00;;;;;;5115744;28;20202;-87
2022/08/23 00:58:30;;;;;;;4.97;3.83;;;14.60;89.80;;;;;;5116281;28;20189;-87
2022/08/23 01:01:00;;;;;;;16.40;12.23;;;14.10;91.00;;;;;;5116564;28;20204;-87
2022/08/23 01:03:31;;;;;;;5.65;3.80;;;13.90;92.80;;;;;;5116306;28;20270;-86
2022/08/23 01:06:07;;;;;;;5.32;3.80;;;13.90;91.40;;;;;;5117986;28;20568;-87
2022/08/23 01:08:52;;;;;;;4.80;3.70;;;13.80;92.30;;;;;;5116283;28;20219;-86
2022/08/23 01:11:32;;;;;;;7.18;6.40;;;13.60;92.40;;;;;;5106854;28;20212;-86
2022/08/23 01:14:10;;;;;;;4.97;3.63;;;13.50;93.00;;;;;;5119771;28;20207;-86
2022/08/23 01:16:44;;;;;;;3.90;3.50;;;13.30;92.90;;;;;;5106956;28;20694;-86
2022/08/23 01:19:18;;;;;;;3.95;3.55;;;13.20;93.30;;;;;;5119506;28;20204;-86
2022/08/23 01:21:49;;;;;;;4.78;3.70;;;13.10;94.10;;;;;;5119548;28;20207;-86
2022/08/23 01:24:18;;;;;;;4.28;3.80;;;13.10;94.70;;;;;;5120601;28;20200;-86
2022/08/23 01:26:46;;;;;;;4.90;3.78;;;13.00;94.90;;;;;;5122473;27;20669;-86
2022/08/23 01:29:17;;;;;;;4.10;3.70;;;13.00;94.60;;;;;;5121323;28;20237;-86
2022/08/23 01:31:44;;;;;;;3.88;3.53;;;13.00;94.80;;;;;;5119998;28;20574;-86
2022/08/23 01:34:16;;;;;;;4.10;3.70;;;13.10;94.80;;;;;;5120295;28;20191;-86
2022/08/23 01:36:47;;;;;;;3.97;3.67;;;13.20;94.90;;;;;;5117046;28;20242;-86
2022/08/23 01:39:16;;;;;;;4.53;3.92;;;13.20;95.00;;;;;;5121434;28;20268;-86
2022/08/23 01:41:45;;;;;;;5.47;4.30;;;13.20;94.90;;;;;;5120417;28;20196;-86
2022/08/23 01:44:13;;;;;;;4.13;3.72;;;13.10;95.00;;;;;;5118863;28;20303;-86
2022/08/23 01:46:46;;;;;;;4.40;4.00;;;13.00;95.20;;;;;;5120686;28;20232;-86
2022/08/23 01:49:16;;;;;;;4.38;3.78;;;12.90;95.70;;;;;;5108196;28;20306;-86
2022/08/23 01:51:43;;;;;;;4.00;3.70;;;13.00;95.80;;;;;;5117185;28;20264;-86
2022/08/23 01:54:10;;;;;;;7.50;4.15;;;13.10;95.70;;;;;;5121739;28;20195;-86
2022/08/23 01:56:40;;;;;;;5.55;3.63;;;13.20;95.50;;;;;;5121690;28;20304;-86
2022/08/23 01:59:07;;;;;;;4.20;3.80;;;13.10;95.60;;;;;;5117830;28;20643;-86
2022/08/23 02:01:34;;;;;;;4.20;3.80;;;13.10;96.00;;;;;;5119994;28;20199;-87
2022/08/23 02:04:03;;;;;;;6.47;4.00;;;13.00;96.00;;;;;;5119944;28;20200;-86
2022/08/23 02:06:31;;;;;;;5.28;3.90;;;13.00;96.10;;;;;;5122150;28;20214;-86
2022/08/23 02:09:04;;;;;;;4.32;3.92;;;13.00;96.40;;;;;;5119801;28;20652;-86
2022/08/23 02:11:34;;;;;;;4.28;3.88;;;12.90;96.40;;;;;;5110442;28;20195;-86
2022/08/23 02:14:05;;;;;;;4.00;3.70;;;12.90;96.40;;;;;;5111300;28;20192;-86
2022/08/23 02:16:34;;;;;;;4.45;3.92;;;12.80;96.40;;;;;;5121813;28;20225;-87
2022/08/23 02:19:11;;;;;;;5.20;4.15;;;12.70;96.30;;;;;;5117797;28;20218;-86
2022/08/23 02:21:40;;;;;;;5.20;3.88;;;12.70;96.30;;;;;;5116475;28;20204;-86
2022/08/23 02:24:09;;;;;;;4.15;3.72;;;12.60;96.50;;;;;;5118892;28;20231;-86
2022/08/23 02:26:37;;;;;;;4.47;3.92;;;12.70;96.80;;;;;;5110474;28;20200;-86
2022/08/23 02:29:07;;;;;;;5.03;4.50;;;12.70;96.80;;;;;;5108934;28;20292;-87
2022/08/23 02:31:34;;;;;;;12.02;4.28;;;12.60;96.70;;;;;;5111890;28;20268;-86
2022/08/23 02:34:04;;;;;;;4.35;3.95;;;12.60;96.90;;;;;;5122004;28;20669;-86
2022/08/23 02:36:32;;;;;;;5.28;3.90;;;12.70;97.10;;;;;;5121749;28;20223;-86
2022/08/23 02:38:59;;;;;;;6.18;3.72;;;12.80;96.80;;;;;;5118999;28;20206;-86
2022/08/23 02:41:26;;;;;;;5.45;3.88;;;12.80;96.70;;;;;;5109123;28;20256;-86
2022/08/23 02:43:54;;;;;;;5.07;3.78;;;12.80;96.40;;;;;;5118019;28;20221;-86
2022/08/23 02:46:28;;;;;;;6.03;4.20;;;12.70;96.60;;;;;;5111375;28;20200;-86
2022/08/23 02:48:55;;;;;;;4.95;4.13;;;12.60;96.90;;;;;;5122080;28;20662;-86
2022/08/23 02:51:23;;;;;;;4.20;3.80;;;12.60;97.30;;;;;;5107819;28;20236;-86
2022/08/23 02:53:51;;;;;;;5.60;4.40;;;12.60;97.20;;;;;;5109090;28;20234;-86
2022/08/23 02:56:18;;;;;;;5.13;3.70;;;12.60;97.10;;;;;;5109017;28;20222;-86
2022/08/23 02:58:52;;;;;;;7.07;4.30;;;12.50;97.20;;;;;;5121264;28;20290;-86
2022/08/23 03:01:21;;;;;;;4.65;4.25;;;12.50;97.30;;;;;;5121946;28;20665;-85
2022/08/23 03:03:49;;;;;;;7.55;4.20;;;12.60;97.10;;;;;;5116503;28;20837;-86
2022/08/23 03:06:17;;;;;;;5.53;4.03;;;12.50;97.20;;;;;;5120431;28;20295;-86
2022/08/23 03:08:45;;;;;;;4.47;4.07;;;12.40;97.40;;;;;;5120145;28;20229;-86
2022/08/23 03:11:15;;;;;;;4.63;4.05;;;12.40;97.60;;;;;;5117330;28;20673;-86
2022/08/23 03:13:42;;;;;;;4.78;3.92;;;12.40;97.80;;;;;;5116068;28;20259;-86
2022/08/23 03:16:27;;;;;;;4.45;4.03;;;12.40;97.70;;;;;;5110860;28;20218;-86
2022/08/23 03:19:11;;;;;;;4.50;4.10;;;12.40;97.70;;;;;;5120804;28;20220;-86
2022/08/23 03:21:39;;;;;;;4.65;3.85;;;12.30;97.60;;;;;;5121085;28;20254;-86
2022/08/23 03:24:06;;;;;;;5.00;4.20;;;12.30;98.00;;;;;;5120871;28;20194;-86
2022/08/23 03:26:33;;;;;;;5.57;4.75;;;12.30;98.10;;;;;;5120622;28;20689;-86
2022/08/23 03:29:15;;;;;;;5.88;3.90;;;12.30;98.30;;;;;;5121909;28;20310;-86
2022/08/23 03:31:42;;;;;;;5.95;4.22;;;12.40;98.30;;;;;;5115535;28;20199;-86
2022/08/23 03:34:10;;;;;;;6.15;4.30;;;12.40;98.20;;;;;;5124217;28;20286;-87
2022/08/23 03:36:37;;;;;;;4.78;3.97;;;12.40;98.20;;;;;;5124077;28;20227;-86
2022/08/23 03:39:09;;;;;;;4.28;3.88;;;12.50;98.00;;;;;;5122822;28;20283;-86
2022/08/23 03:41:36;;;;;;;5.55;4.03;;;12.50;97.90;;;;;;5123771;28;20223;-86
2022/08/23 03:44:03;;;;;;;5.18;4.20;;;12.50;98.30;;;;;;5124637;28;20220;-86
2022/08/23 03:46:31;;;;;;;4.50;4.10;;;12.50;98.20;;;;;;5123590;28;20192;-86
2022/08/23 03:49:01;;;;;;;4.50;3.97;;;12.60;98.00;;;;;;5123736;28;20690;-86
2022/08/23 03:51:35;;;;;;;5.00;4.40;;;12.60;97.90;;;;;;5122707;28;20367;-88
2022/08/23 03:54:02;;;;;;;4.63;4.18;;;12.60;97.90;;;;;;5123304;28;20207;-86
2022/08/23 03:56:35;;;;;;;5.93;4.70;;;12.60;97.90;;;;;;5119974;28;20590;-86
2022/08/23 03:59:05;;;;;;;4.97;4.20;;;12.60;98.00;;;;;;5111648;28;20222;-85
2022/08/23 04:01:32;;;;;;;4.70;3.90;;;12.70;97.80;;;;;;5124373;28;20705;-86
2022/08/23 04:04:15;;;;;;;5.07;4.35;;;12.70;97.60;;;;;;5124524;28;20206;-86
2022/08/23 04:06:44;;;;;;;6.47;4.50;;;12.70;97.80;;;;;;5125123;28;20211;-86
2022/08/23 04:09:12;;;;;;;6.22;4.78;;;12.70;97.90;;;;;;5122550;28;20218;-86
2022/08/23 04:11:39;;;;;;;7.57;4.47;;;12.60;98.10;;;;;;5124479;28;20282;-86
2022/08/23 04:14:21;;;;;;;5.93;4.90;;;12.50;98.30;;;;;;5105612;28;20205;-87
2022/08/23 04:16:51;;;;;;;5.65;4.60;;;12.50;98.20;;;;;;5109013;28;20199;-86
2022/08/23 04:19:18;;;;;;;6.32;4.60;;;12.60;98.20;;;;;;5117916;28;20192;-87
2022/08/23 04:21:49;;;;;;;6.03;4.65;;;12.60;98.20;;;;;;5120162;28;20283;-86
2022/08/23 04:24:17;;;;;;;6.78;4.50;;;12.60;98.10;;;;;;5106632;28;20208;-86
2022/08/23 04:26:44;;;;;;;4.75;4.25;;;12.50;98.20;;;;;;5118496;28;20202;-86
2022/08/23 04:29:15;;;;;;;11.40;4.40;;;12.50;98.10;;;;;;5118316;28;20297;-86
2022/08/23 04:31:42;;;;;;;7.47;4.82;;;12.50;98.10;;;;;;5104886;28;20192;-86
2022/08/23 04:34:15;;;;;;;6.20;4.60;;;12.40;98.00;;;;;;5110050;28;20192;-86
2022/08/23 04:36:43;;;;;;;6.28;4.10;;;12.40;98.30;;;;;;5113259;28;20201;-86
2022/08/23 04:39:12;;;;;;;6.60;4.60;;;12.40;98.50;;;;;;5111306;28;20286;-86
2022/08/23 04:44:23;;;;;;;4.93;4.43;;;12.30;98.60;;;;;;5122217;28;20276;-86
2022/08/23 04:46:50;;;;;;;6.50;4.65;;;12.30;98.40;;;;;;5123853;28;20632;-86
2022/08/23 04:49:22;;;;;;;11.18;4.93;;;12.40;98.20;;;;;;5107256;28;20220;-86
2022/08/23 04:51:51;;;;;;;5.57;4.40;;;12.40;98.00;;;;;;5116605;28;20233;-86
2022/08/23 04:54:23;;;;;;;8.02;4.90;;;12.40;97.90;;;;;;5117915;28;20214;-86
2022/08/23 04:56:50;;;;;;;6.00;4.00;;;12.40;97.80;;;;;;5107719;28;20204;-87
2022/08/23 04:59:27;;;;;;;6.22;4.07;;;12.30;97.50;;;;;;5116877;28;20215;-86
2022/08/23 05:01:54;;;;;;;5.38;4.70;;;12.30;97.50;;;;;;5112482;28;20283;-86
2022/08/23 05:04:21;;;;;;;4.88;3.88;;;12.30;97.70;;;;;;5110991;28;20200;-86
2022/08/23 05:06:48;;;;;;;5.13;4.25;;;12.30;97.70;;;;;;5107790;28;20208;-86
2022/08/23 05:09:15;;;;;;;4.43;4.00;;;12.40;97.70;;;;;;5123952;28;20195;-86
2022/08/23 05:11:59;;;;;;;4.55;4.15;;;12.40;97.50;;;;;;5112455;28;20199;-86
2022/08/23 05:14:26;;;;;;;5.70;4.18;;;12.40;97.40;;;;;;5107158;28;20193;-86
2022/08/23 05:16:53;;;;;;;4.75;4.25;;;12.40;97.40;;;;;;5121023;28;20227;-86
2022/08/23 05:19:20;;;;;;;6.68;4.30;;;12.50;97.50;;;;;;5122313;28;20291;-86
2022/08/23 05:21:47;;;;;;;4.80;4.20;;;12.50;97.30;;;;;;5119123;28;20203;-86
2022/08/23 05:24:21;;;;;;;4.55;4.15;;;12.50;97.30;;;;;;5119907;28;20283;-86
2022/08/23 05:26:58;;;;;;;4.32;3.90;;;12.60;97.40;;;;;;5119653;28;20205;-86
2022/08/23 05:29:25;;;;;;;6.32;4.15;;;12.60;97.50;;;;;;5108819;28;20228;-86
2022/08/23 05:31:52;;;;;;;9.82;4.43;;;12.70;97.50;;;;;;5121638;28;20208;-86
2022/08/23 05:34:19;;;;;;;5.05;4.05;;;12.70;97.30;;;;;;5116766;28;20279;-85
2022/08/23 05:36:46;;;;;;;7.55;4.18;;;12.80;97.20;;;;;;5116630;28;20199;-86
2022/08/23 05:39:15;;;;;;;6.43;4.10;;;12.80;96.90;;;;;;5110875;28;20190;-86
2022/08/23 05:41:45;;;;;;;4.50;4.07;;;12.90;97.10;;;;;;5110693;28;20206;-85
2022/08/23 05:44:13;;;;;;;5.63;4.15;;;13.00;97.10;;;;;;5113872;28;20222;-86
2022/08/23 05:46:51;;;;;;;6.88;4.15;;;13.20;96.50;;;;;;5118271;28;20210;-86
2022/08/23 05:49:18;;;;;;;5.03;4.20;;;13.20;96.50;;;;;;5099996;28;20313;-86
2022/08/23 05:51:45;;;;;;;5.18;3.60;;;13.30;96.50;;;;;;5118838;28;20196;-86
2022/08/23 05:54:12;;;;;;;4.55;4.03;;;13.40;95.80;;;;;;5117462;28;20206;-87
2022/08/23 05:56:41;;;;;;;5.20;3.97;;;13.50;95.00;;;;;;5101197;28;20196;-87
2022/08/23 05:59:13;;;;;;;3.97;3.53;;;13.60;94.80;;;;;;5098512;28;20664;-87
2022/08/23 06:01:42;;;;;;;5.13;3.75;;;13.70;94.80;;;;;;5113302;28;20563;-87
2022/08/23 06:04:11;;;;;;;3.88;3.22;;;13.70;94.40;;;;;;5108707;28;20204;-86
2022/08/23 06:06:46;;;;;;;4.45;3.70;;;13.80;93.70;;;;;;5116830;28;20563;-87
2022/08/23 06:09:15;;;;;;;4.45;3.22;;;13.90;93.30;;;;;;5110675;28;20207;-87
2022/08/23 06:11:43;;;;;;;5.15;3.58;;;14.00;92.90;;;;;;5112200;28;20660;-86
2022/08/23 06:14:11;;;;;;;7.65;3.25;;;14.10;92.70;;;;;;5106978;28;20206;-87
2022/08/23 06:16:40;;;;;;;3.65;3.22;;;14.10;92.70;;;;;;5113522;28;20204;-87
2022/08/23 06:19:09;;;;;;;4.30;3.70;;;14.20;92.80;;;;;;5103253;28;20203;-87
2022/08/23 06:21:39;;;;;;;4.90;3.17;;;14.30;92.90;;;;;;5105149;28;20203;-87
2022/08/23 06:24:06;;;;;;;6.35;3.72;;;14.40;92.80;;;;;;5104699;28;20196;-87
2022/08/23 06:26:37;;;;;;;4.22;3.13;;;14.50;92.30;;;;;;5106020;28;20242;-87
2022/08/23 06:29:06;;;;;;;5.65;3.33;;;14.60;92.10;;;;;;5112863;28;20694;-87
2022/08/23 06:31:45;;;;;;;5.68;3.30;;;14.70;91.90;;;;;;5104169;28;20687;-87
2022/08/23 06:34:18;;;;;;;4.45;3.25;;;14.80;92.10;;;;;;5102817;28;20199;-87
2022/08/23 06:36:46;;;;;;;7.38;3.55;;;14.90;92.10;;;;;;5099467;28;20197;-87
2022/08/23 06:39:13;;;;;;;4.20;3.33;;;15.10;92.30;;;;;;5104232;28;20196;-87
2022/08/23 06:41:47;;;;;;;3.42;3.10;;;15.20;92.20;;;;;;5104873;28;20195;-87
2022/08/23 06:44:16;;;;;;;4.72;3.50;;;15.30;92.30;;;;;;5112965;28;20311;-87
2022/08/23 06:46:43;;;;;;;4.30;3.20;;;15.40;92.60;;;;;;5107410;28;20197;-87
2022/08/23 06:49:10;;;;;;;4.68;3.28;;;15.50;91.90;;;;;;5110462;28;20195;-87
2022/08/23 06:51:40;;;;;;;4.63;3.20;;;15.60;91.60;;;;;;5112885;28;20222;-87
2022/08/23 06:54:11;;;;;;;3.60;3.30;;;15.70;91.60;;;;;;5110013;28;20200;-87
2022/08/23 06:56:39;;;;;;;3.83;3.45;;;15.90;91.20;;;;;;5109858;28;20238;-87
2022/08/23 06:59:06;;;;;;;5.22;3.13;;;16.00;90.30;;;;;;5112101;28;20643;-87
2022/08/23 07:01:42;;;;;;;4.50;3.00;;;16.00;87.50;;;;;;5114958;28;20193;-86
2022/08/23 07:04:20;;;;;;;4.47;2.92;;;16.10;88.20;;;;;;5110126;28;20207;-86
2022/08/23 07:06:48;;;;;;;5.65;3.30;;;16.20;86.70;;;;;;5115145;28;20211;-87
2022/08/23 07:09:15;;;;;;;3.72;2.70;;;16.30;83.90;;;;;;5117397;28;20207;-87
2022/08/23 07:11:42;;;;;;;4.18;2.83;;;16.40;83.70;;;;;;5116001;28;20262;-87
2022/08/23 07:14:11;;;;;;;4.15;2.88;;;16.60;82.80;;;;;;5118254;28;20206;-87
2022/08/23 07:16:42;;;;;;;4.93;3.13;;;16.70;80.60;;;;;;5115746;28;20218;-87
2022/08/23 07:19:09;;;;;;;4.97;2.72;;;16.70;78.50;;;;;;5119102;27;20200;-87
2022/08/23 07:21:36;;;;;;;5.85;3.10;;;16.80;78.60;;;;;;5116257;28;20207;-87
2022/08/23 07:24:05;;;;;;;2.72;2.53;;;16.90;78.60;;;;;;5116080;28;20230;-87
2022/08/23 07:26:32;;;;;;;3.17;2.75;;;17.00;78.70;;;;;;5108937;28;20202;-87
2022/08/23 07:29:00;;;;;;;2.75;2.40;;;17.10;76.90;;;;;;5113655;28;20655;-87
2022/08/23 07:31:31;;;;;;;4.18;2.80;;;17.20;73.50;;;;;;5115358;28;20288;-87
2022/08/23 07:33:59;;;;;;;2.80;2.55;;;17.30;74.10;;;;;;5116656;28;20196;-87
2022/08/23 07:36:28;;;;;;;2.70;2.50;;;17.40;72.40;;;;;;5112207;28;20196;-87
2022/08/23 07:38:56;;;;;;;3.10;2.55;;;17.60;65.30;;;;;;5113921;28;20196;-87
2022/08/23 07:41:26;;;;;;;2.92;2.60;;;17.70;66.20;;;;;;5115974;28;20207;-87
2022/08/23 07:43:58;;;;;;;4.07;2.70;;;17.70;62.00;;;;;;5111705;28;20642;-87
2022/08/23 07:46:26;;;;;;;3.25;2.40;;;17.80;59.90;;;;;;5113378;28;20295;-87
2022/08/23 07:48:53;;;;;;;3.28;2.70;;;17.80;61.60;;;;;;5105922;28;20219;-87
2022/08/23 07:51:20;;;;;;;5.00;2.72;;;17.90;57.50;;;;;;5100033;28;20211;-87
2022/08/23 07:53:51;;;;;;;4.63;2.50;;;18.00;56.90;;;;;;5117045;28;20204;-87
2022/08/23 07:56:20;;;;;;;5.20;2.70;;;18.10;56.50;;;;;;5116359;28;20610;-87
2022/08/23 07:58:49;;;;;;;6.80;2.67;;;18.20;59.40;;;;;;5108721;28;20210;-87
2022/08/23 08:01:24;;;;;;;3.17;2.33;;;18.20;54.30;;;;;;5114879;28;20257;-87
2022/08/23 08:03:53;;;;;;;5.93;2.70;;;18.30;54.40;;;;;;5114072;28;20203;-87
2022/08/23 08:06:23;;;;;;;3.25;2.53;;;18.40;54.50;;;;;;5103052;28;20212;-87
2022/08/23 08:08:50;;;;;;;4.55;2.67;;;18.50;54.60;;;;;;5116298;28;20210;-87
2022/08/23 08:11:22;;;;;;;5.25;2.50;;;18.60;54.60;;;;;;5115898;28;20559;-87
2022/08/23 08:13:52;;;;;;;3.45;2.40;;;18.70;53.90;;;;;;5097500;28;20208;-87
2022/08/23 08:16:30;;;;;;;5.15;2.50;;;18.80;50.10;;;;;;5109581;28;20202;-87
2022/08/23 08:18:59;;;;;;;2.28;2.08;;;18.90;47.30;;;;;;5104194;28;20218;-87
2022/08/23 08:21:27;;;;;;;2.92;2.30;;;19.00;49.40;;;;;;5103135;28;20207;-87
2022/08/23 08:23:54;;;;;;;4.00;2.53;;;19.10;48.20;;;;;;5115945;28;20202;-87
2022/08/23 08:26:26;;;;;;;2.88;2.58;;;19.20;47.40;;;;;;5104394;28;20197;-85
2022/08/23 08:28:55;;;;;;;3.50;2.20;;;19.40;46.00;;;;;;5102788;28;20222;-87
2022/08/23 08:31:22;;;;;;;3.88;2.25;;;19.50;41.10;;;;;;5104293;27;20687;-87
2022/08/23 08:33:51;;;;;;;5.00;2.40;;;19.50;40.30;;;;;;5114148;28;20647;-87
2022/08/23 08:36:37;;;;;;;3.67;2.58;;;19.60;42.80;;;;;;5115592;28;20618;-87
2022/08/23 08:39:06;;;;;;;3.47;2.33;;;19.80;38.50;;;;;;5113752;28;20198;-87
2022/08/23 08:41:51;;;;;;;3.80;2.70;;;20.00;38.50;;;;;;5115676;28;20211;-87
2022/08/23 08:44:35;;;;;;;4.57;2.40;;;19.80;35.80;;;;;;5114545;28;20222;-87
2022/08/23 08:47:08;;;;;;;3.70;2.47;;;19.70;35.10;;;;;;5114700;28;20196;-87
2022/08/23 08:49:40;;;;;;;3.65;2.60;;;19.80;37.40;;;;;;5118980;28;20204;-85
2022/08/23 08:52:15;;;;;;;3.78;2.40;;;19.90;36.30;;;;;;5118096;28;20218;-85
2022/08/23 08:54:47;;;;;;;5.78;2.45;;;20.10;38.30;;;;;;5105628;28;20191;-85
2022/08/23 08:57:18;;;;;;;2.75;2.00;;;20.30;37.30;;;;;;5112969;28;20288;-86
2022/08/23 09:00:07;;;;;;;5.00;2.47;;;20.50;36.90;;;;;;5099829;28;20224;-87
2022/08/23 09:02:35;;;;;;;4.03;2.20;;;20.70;38.80;;;;;;5116266;28;20207;-84
2022/08/23 09:05:07;;;;;;;3.80;2.58;;;21.00;32.90;;;;;;5116528;28;20192;-87
2022/08/23 09:08:01;;;;;;;3.25;2.13;;;21.20;30.50;;;;;;5115447;28;20671;-85
2022/08/23 09:10:54;;;;;;;7.80;2.50;;;21.40;28.70;;;;;;5110955;28;20559;-85
2022/08/23 09:13:54;;;;;;;3.95;2.20;;;22.00;28.20;;;;;;5098433;28;20208;-84
2022/08/23 09:16:39;;;;;;;4.82;2.40;;;23.60;21.90;;;;;;5109970;28;20212;-84
2022/08/23 09:19:07;;;;;;;4.53;2.50;;;25.90;16.90;;;;;;5108550;28;20198;-84
2022/08/23 09:21:43;;;;;;;3.10;2.80;;;27.50;15.50;;;;;;5111993;28;20210;-85
2022/08/23 09:24:15;;;;;;;2.97;2.42;;;28.70;12.40;;;;;;5114179;28;20282;-85
2022/08/23 09:26:44;;;;;;;5.47;2.85;;;30.00;11.40;;;;;;5112622;28;20206;-85
2022/08/23 09:29:21;;;;;;;4.97;2.78;;;30.80;10.10;;;;;;5114517;28;20203;-85
2022/08/23 09:32:25;;;;;;;5.30;2.60;;;31.10;8.50;;;;;;5118213;28;20223;-84
2022/08/23 09:34:53;;;;;;;5.50;3.22;;;31.60;7.30;;;;;;5118399;28;20199;-85
2022/08/23 09:37:23;;;;;;;3.50;2.85;;;31.40;7.70;;;;;;5107535;28;20195;-85
2022/08/23 09:39:54;;;;;;;3.88;3.33;;;31.20;7.60;;;;;;5114248;28;20262;-85
2022/08/23 09:43:09;;;;;;;4.30;3.20;;;30.70;7.40;;;;;;5123378;28;20202;-84
2022/08/23 09:45:42;;;;;;;4.28;3.10;;;32.40;5.70;;;;;;5123977;28;20671;-83
2022/08/23 09:48:17;;;;;;;7.47;3.30;;;32.30;5.40;;;;;;5120952;28;20187;-84
2022/08/23 09:50:53;;;;;;;3.75;3.10;;;31.50;6.40;;;;;;5112470;28;20203;-84
2022/08/23 09:53:25;;;;;;;4.25;3.40;;;31.40;7.40;;;;;;5118514;28;20196;-84
2022/08/23 09:56:11;;;;;;;5.50;3.95;;;31.00;7.00;;;;;;5118452;28;20642;-84
2022/08/23 09:58:42;;;;;;;5.43;3.90;;;31.00;7.50;;;;;;5111720;28;20199;-84
2022/08/23 10:01:13;;;;;;;6.57;3.78;;;30.40;8.20;;;;;;5110044;28;20677;-84
2022/08/23 10:04:12;;;;;;;3.88;3.50;;;31.20;6.70;;;;;;5110110;28;20196;-85
2022/08/23 10:06:42;;;;;;;8.63;5.00;;;30.70;7.80;;;;;;5124818;28;20335;-85
2022/08/23 10:09:33;;;;;;;15.15;9.73;;;30.80;9.10;;;;;;5122478;28;20203;-85
2022/08/23 10:12:11;;;;;;;11.00;7.18;;;31.40;7.70;;;;;;5119303;28;20215;-85
2022/08/23 10:14:38;;;;;;;4.38;3.47;;;31.50;6.80;;;;;;5118537;28;20199;-85
2022/08/23 10:17:14;;;;;;;21.05;19.08;;;31.10;7.50;;;;;;5123411;28;20222;-85
2022/08/23 10:19:54;;;;;;;4.10;3.47;;;31.30;6.90;;;;;;5125046;28;20195;-85
2022/08/23 10:22:24;;;;;;;5.78;5.25;;;30.30;7.40;;;;;;5113670;27;20203;-85
2022/08/23 10:25:01;;;;;;;12.13;10.30;;;30.00;7.00;;;;;;5111146;28;20195;-85
2022/08/23 10:30:41;;;;;;;3.38;3.13;;;31.50;6.30;;;;;;5116303;28;20574;-86
2022/08/23 10:33:15;;;;;;;7.05;4.28;;;30.40;8.00;;;;;;5118718;28;20206;-85
2022/08/23 10:36:07;;;;;;;7.80;3.58;;;31.20;5.40;;;;;;5116199;28;20192;-85
2022/08/23 10:38:45;;;;;;;4.97;3.45;;;31.40;4.80;;;;;;5110334;28;20621;-85
2022/08/23 10:41:33;;;;;;;3.92;3.08;;;31.50;4.60;;;;;;5101396;28;20565;-85
2022/08/23 10:44:15;;;;;;;5.35;2.88;;;31.40;7.50;;;;;;5116915;28;20225;-85
2022/08/23 10:46:47;;;;;;;4.90;3.10;;;31.60;4.60;;;;;;5108237;28;20203;-85
2022/08/23 10:49:24;;;;;;;3.00;2.72;;;31.40;5.00;;;;;;5108289;28;20204;-85
2022/08/23 10:51:53;;;;;;;4.53;3.28;;;30.90;4.90;;;;;;5117359;28;20289;-85
2022/08/23 10:54:34;;;;;;;2.53;2.33;;;30.20;7.50;;;;;;5116631;28;20204;-85
2022/08/23 10:57:02;;;;;;;5.50;2.70;;;29.60;6.90;;;;;;5105377;28;20294;-85
2022/08/23 10:59:30;;;;;;;7.63;2.80;;;29.90;7.00;;;;;;5103457;28;20203;-85
2022/08/23 11:02:10;;;;;;;3.75;3.20;;;29.30;7.40;;;;;;5115715;28;20651;-85
2022/08/23 11:04:48;;;;;;;3.60;2.92;;;28.90;7.20;;;;;;5113421;28;20195;-86
2022/08/23 11:07:19;;;;;;;4.45;2.95;;;28.80;9.40;;;;;;5109523;28;20800;-85
2022/08/23 11:09:53;;;;;;;4.07;2.95;;;29.10;9.00;;;;;;5097671;28;20732;-85
2022/08/23 11:12:29;;;;;;;5.90;3.08;;;28.40;11.40;;;;;;5113653;28;20207;-85
2022/08/23 11:15:29;;;;;;;3.80;2.50;;;27.90;8.70;;;;;;5104592;28;20196;-85
2022/08/23 11:18:06;;;;;;;3.97;2.83;;;27.30;14.20;;;;;;5041242;28;20309;-84
2022/08/23 11:21:11;;;;;;;3.13;2.25;;;27.10;10.90;;;;;;5050040;28;20205;-84
2022/08/23 11:23:47;;;;;;;4.68;2.15;;;26.80;13.80;;;;;;5053568;28;20205;-84
2022/08/23 11:27:02;;;;;;;2.72;2.10;;;26.60;12.50;;;;;;5046201;28;20232;-83
2022/08/23 11:29:32;;;;;;;2.58;2.00;;;26.50;12.60;;;;;;5046224;28;20198;-84
2022/08/23 11:32:05;;;;;;;2.45;2.00;;;26.40;9.90;;;;;;5049605;28;20265;-81
2022/08/23 11:34:43;;;;;;;3.40;2.00;;;26.10;11.70;;;;;;5038190;28;20197;-81
2022/08/23 11:37:29;;;;;;;7.50;2.58;;;26.10;10.70;;;;;;5050928;28;20571;-82
2022/08/23 11:40:08;;;;;;;4.22;2.17;;;26.00;11.20;;;;;;5052438;28;20256;-82
2022/08/23 11:42:48;;;;;;;3.28;2.13;;;26.10;12.60;;;;;;5043204;28;20637;-82
2022/08/23 11:45:25;;;;;;;3.55;2.10;;;26.00;13.10;;;;;;5047818;28;20218;-82
2022/08/23 11:48:05;;;;;;;2.95;1.85;;;25.80;12.60;;;;;;5052188;28;20202;-82
2022/08/23 11:50:43;;;;;;;3.53;2.13;;;25.80;11.60;;;;;;5056517;28;20231;-84
2022/08/23 11:53:21;;;;;;;4.03;2.40;;;25.50;13.20;;;;;;5058588;28;20240;-83
2022/08/23 11:56:12;;;;;;;5.72;2.30;;;25.50;14.50;;;;;;5101294;28;20192;-83
2022/08/23 11:59:01;;;;;;;4.40;2.28;;;25.40;13.00;;;;;;5106018;28;20206;-85
2022/08/23 12:01:35;;;;;;;5.22;2.50;;;25.60;12.00;;;;;;5101382;28;20295;-85
2022/08/23 12:04:09;;;;;;;3.42;2.10;;;25.60;12.40;;;;;;5104418;28;20204;-84
2022/08/23 12:06:44;;;;;;;2.80;1.80;;;25.70;12.10;;;;;;5113517;28;20227;-84
2022/08/23 12:09:51;;;;;;;2.45;2.15;;;25.60;14.40;;;;;;5106217;28;20195;-85
2022/08/23 12:12:38;;;;;;;5.97;2.40;;;25.40;13.20;;;;;;5097539;28;20224;-84
2022/08/23 12:15:08;;;;;;;2.20;2.00;;;25.60;14.40;;;;;;5116562;28;20212;-84
2022/08/23 12:17:55;;;;;;;3.78;1.70;;;25.70;12.00;;;;;;5109775;28;20217;-82
2022/08/23 12:20:30;;;;;;;2.47;2.28;;;25.70;11.20;;;;;;5098669;28;20200;-84
2022/08/23 12:23:07;;;;;;;10.27;9.30;;;25.70;10.80;;;;;;5114642;28;20229;-82
2022/08/23 12:25:36;;;;;;;4.75;3.00;;;25.70;12.10;;;;;;5112554;28;20288;-83
2022/08/23 12:28:31;;;;;;;4.65;2.00;;;25.60;12.40;;;;;;5110742;28;20203;-82
2022/08/23 12:31:19;;;;;;;5.30;2.03;;;25.50;11.40;;;;;;5102155;28;20210;-82
2022/08/23 12:34:01;;;;;;;5.30;2.70;;;25.70;11.30;;;;;;5110447;28;20302;-82
2022/08/23 12:36:48;;;;;;;2.83;1.80;;;25.70;10.70;;;;;;5106024;28;20206;-83
2022/08/23 12:39:23;;;;;;;3.47;1.95;;;25.80;11.40;;;;;;5110926;28;20202;-84
2022/08/23 12:41:55;;;;;;;2.35;1.90;;;25.70;11.60;;;;;;5105872;28;20215;-81
2022/08/23 12:44:25;;;;;;;4.45;1.88;;;25.70;11.10;;;;;;5103002;28;20219;-82
2022/08/23 12:46:52;;;;;;;3.20;1.95;;;25.80;11.80;;;;;;5112413;28;20214;-83
2022/08/23 12:49:26;;;;;;;2.55;1.90;;;25.60;11.40;;;;;;5111281;28;20188;-83
2022/08/23 12:51:56;;;;;;;4.50;2.13;;;25.60;10.50;;;;;;5098494;28;20220;-82
2022/08/23 12:54:31;;;;;;;4.10;2.00;;;25.70;12.20;;;;;;5106847;28;20216;-84
2022/08/23 12:57:00;;;;;;;2.30;2.05;;;25.70;11.30;;;;;;5108716;27;20270;-84
2022/08/23 12:59:35;;;;;;;2.65;1.63;;;25.70;9.90;;;;;;5104631;28;20212;-84
2022/08/23 13:02:08;;;;;;;3.10;2.35;;;25.70;10.40;;;;;;5104264;28;20244;-82
2022/08/23 13:04:39;;;;;;;2.80;1.95;;;25.70;10.90;;;;;;5104471;28;20200;-83
2022/08/23 13:07:13;;;;;;;5.38;2.28;;;25.50;11.40;;;;;;5103075;28;20261;-84
2022/08/23 13:09:42;;;;;;;2.33;1.70;;;25.60;10.40;;;;;;5107902;28;20226;-83
2022/08/23 13:12:22;;;;;;;3.30;1.95;;;25.60;11.50;;;;;;5111848;28;20219;-83
2022/08/23 13:14:53;;;;;;;2.58;1.80;;;25.60;11.50;;;;;;5101851;28;20201;-83
2022/08/23 13:17:31;;;;;;;3.72;2.35;;;25.50;10.60;;;;;;5108645;28;20740;-83
2022/08/23 13:20:14;;;;;;;2.67;1.73;;;25.40;11.40;;;;;;5112162;28;20200;-83
2022/08/23 13:23:00;;;;;;;2.90;2.03;;;25.50;12.20;;;;;;5105167;28;20542;-83
2022/08/23 13:25:30;;;;;;;4.10;2.13;;;25.60;12.80;;;;;;5115794;28;20196;-83
2022/08/23 13:27:59;;;;;;;6.03;2.42;;;25.50;12.30;;;;;;5111350;28;20204;-83